Time;durP1;ratioP1;P1;durP2;ratioP2;P2;SDS_P1;SDS_P2;PMS_P1;PMS_P2;Temp;Humidity;BMP_temperature;BMP_pressure;BME280_temperature;BME280_humidity;BME280_pressure;Samples;Min_cycle;Max_cycle;Signal;HPM_P1;HPM_P2
2023/09/22 00:02:16;;;;;;;12.38;4.72;;;;;;;13.03;72.14;98233.06;5098153;28;20047;-44
2023/09/22 00:04:44;;;;;;;8.68;3.63;;;;;;;13.01;71.11;98227.09;5098233;27;20051;-50
2023/09/22 00:07:11;;;;;;;6.85;3.13;;;;;;;13.01;71.46;98229.69;5101060;27;20051;-51
2023/09/22 00:09:38;;;;;;;6.55;3.00;;;;;;;12.99;70.96;98226.28;5106455;27;20058;-46
2023/09/22 00:12:08;;;;;;;6.20;2.58;;;;;;;12.98;71.83;98235.00;5100112;27;20108;-46
2023/09/22 00:14:36;;;;;;;6.20;3.08;;;;;;;12.96;72.28;98226.41;5096606;28;20126;-51
2023/09/22 00:17:03;;;;;;;5.30;4.65;;;;;;;12.94;70.97;98238.66;5101418;27;20818;-40
2023/09/22 00:19:31;;;;;;;6.82;2.90;;;;;;;12.89;72.07;98236.22;5100851;28;20484;-48
2023/09/22 00:21:57;;;;;;;4.90;2.92;;;;;;;12.84;71.07;98239.00;5108065;27;20055;-49
2023/09/22 00:24:24;;;;;;;7.05;3.13;;;;;;;12.80;71.05;98234.03;5109996;27;20039;-46
2023/09/22 00:26:51;;;;;;;4.05;2.78;;;;;;;12.76;71.26;98238.47;5108400;27;20054;-45
2023/09/22 00:29:17;;;;;;;5.30;3.03;;;;;;;12.72;71.13;98235.19;5107494;27;20055;-46
2023/09/22 00:31:44;;;;;;;8.52;3.88;;;;;;;12.66;70.82;98240.63;5117727;27;20042;-48
2023/09/22 00:34:11;;;;;;;8.80;3.40;;;;;;;12.63;71.88;98237.31;5113934;27;20128;-49
2023/09/22 00:36:38;;;;;;;9.15;5.45;;;;;;;12.60;71.16;98246.91;5100095;28;20610;-47
2023/09/22 00:39:05;;;;;;;8.38;4.15;;;;;;;12.57;71.44;98247.00;5105493;28;20516;-45
2023/09/22 00:41:31;;;;;;;6.63;3.45;;;;;;;12.55;71.91;98254.03;5109319;27;20059;-49
2023/09/22 00:43:58;;;;;;;8.13;4.40;;;;;;;12.52;71.06;98243.78;5110589;27;20048;-43
2023/09/22 00:46:26;;;;;;;10.23;4.90;;;;;;;12.52;71.71;98253.28;5109652;27;20138;-47
2023/09/22 00:48:55;;;;;;;8.27;4.05;;;;;;;12.50;71.83;98245.56;5100661;27;20054;-45
2023/09/22 00:51:22;;;;;;;8.25;4.10;;;;;;;12.48;72.48;98250.00;5097480;28;20100;-46
2023/09/22 00:53:50;;;;;;;12.75;5.30;;;;;;;12.51;71.65;98247.28;5100882;28;20036;-44
2023/09/22 00:56:21;;;;;;;9.32;5.10;;;;;;;12.51;71.71;98252.47;5107457;27;20077;-46
2023/09/22 00:58:49;;;;;;;11.98;4.80;;;;;;;12.52;71.56;98253.28;5114430;27;20044;-51
2023/09/22 01:01:18;;;;;;;9.45;5.05;;;;;;;12.54;72.66;98259.28;5108456;27;20044;-45
2023/09/22 01:03:45;;;;;;;10.77;5.47;;;;;;;12.55;71.76;98254.03;5098492;27;20044;-43
2023/09/22 01:06:13;;;;;;;12.85;4.45;;;;;;;12.57;72.65;98267.78;5084783;28;20051;-51
2023/09/22 01:08:39;;;;;;;10.93;5.05;;;;;;;12.59;72.87;98254.75;5101346;27;20055;-47
2023/09/22 01:11:06;;;;;;;11.13;5.10;;;;;;;12.60;72.08;98257.28;5105728;27;20738;-48
2023/09/22 01:13:33;;;;;;;9.40;5.22;;;;;;;12.64;72.89;98258.03;5104158;27;20051;-47
2023/09/22 01:16:00;;;;;;;11.73;5.32;;;;;;;12.66;72.69;98257.97;5092730;28;20496;-46
2023/09/22 01:18:28;;;;;;;9.85;4.60;;;;;;;12.69;72.11;98265.63;5089373;27;20133;-43
2023/09/22 01:20:58;;;;;;;9.02;4.25;;;;;;;12.70;72.88;98265.56;5115504;27;20043;-49
2023/09/22 01:23:24;;;;;;;9.77;4.47;;;;;;;12.72;72.32;98262.91;5090976;27;20815;-46
2023/09/22 01:25:52;;;;;;;8.63;4.53;;;;;;;12.74;71.77;98263.69;5103065;27;20044;-42
2023/09/22 01:28:24;;;;;;;8.00;4.65;;;;;;;12.75;72.02;98269.72;5101760;28;20058;-45
2023/09/22 01:30:51;;;;;;;11.32;4.70;;;;;;;12.78;72.98;98269.59;5100983;27;20075;-48
2023/09/22 01:33:18;;;;;;;7.47;3.95;;;;;;;12.78;72.64;98265.25;5110342;27;20059;-47
2023/09/22 01:35:45;;;;;;;12.13;4.70;;;;;;;12.80;72.75;98267.78;5104526;28;20055;-53
2023/09/22 01:38:15;;;;;;;7.65;4.63;;;;;;;12.80;72.86;98263.44;5103200;28;20417;-49
2023/09/22 01:40:43;;;;;;;8.25;4.20;;;;;;;12.80;72.94;98266.03;5109636;28;20043;-46
2023/09/22 01:43:10;;;;;;;7.90;4.10;;;;;;;12.81;72.01;98272.09;5088864;28;20404;-50
2023/09/22 01:45:38;;;;;;;7.93;3.90;;;;;;;12.82;72.82;98266.81;5100592;28;20044;-44
2023/09/22 01:48:08;;;;;;;9.90;3.97;;;;;;;12.83;72.46;98273.69;5103309;28;20048;-50
2023/09/22 01:50:38;;;;;;;8.63;3.90;;;;;;;12.84;73.18;98275.38;5081780;28;20065;-45
2023/09/22 01:53:08;;;;;;;6.68;4.10;;;;;;;12.85;72.89;98282.28;5107156;28;20653;-49
2023/09/22 01:55:35;;;;;;;7.00;3.28;;;;;;;12.84;72.91;98275.38;5102580;28;20070;-46
2023/09/22 01:58:04;;;;;;;6.68;3.42;;;;;;;12.87;72.61;98283.97;5103270;28;20047;-45
2023/09/22 02:00:33;;;;;;;7.72;3.70;;;;;;;12.87;73.28;98278.78;5104733;28;20101;-45
2023/09/22 02:03:01;;;;;;;10.13;4.32;;;;;;;12.84;72.98;98277.97;5093922;28;20057;-48
2023/09/22 02:05:29;;;;;;;9.52;3.42;;;;;;;12.82;71.73;98272.03;5100001;28;20139;-48
2023/09/22 02:07:57;;;;;;;8.70;3.65;;;;;;;12.83;72.87;98262.44;5106424;28;20101;-43
2023/09/22 02:10:24;;;;;;;5.60;2.83;;;;;;;12.82;72.36;98265.97;5102518;28;20152;-46
2023/09/22 02:12:51;;;;;;;9.52;3.25;;;;;;;12.80;73.27;98263.44;5119902;27;20042;-48
2023/09/22 02:15:17;;;;;;;4.90;2.80;;;;;;;12.79;72.21;98261.75;5090731;28;20127;-49
2023/09/22 02:17:46;;;;;;;6.50;3.25;;;;;;;12.77;72.35;98273.13;5093488;28;20043;-47
2023/09/22 02:20:30;;;;;;;5.15;3.00;;;;;;;12.73;72.77;98273.22;5086767;28;20131;-51
2023/09/22 02:22:57;;;;;;;7.28;3.40;;;;;;;12.71;72.63;98271.59;5090372;28;20608;-46
2023/09/22 02:25:25;;;;;;;7.57;3.00;;;;;;;12.68;71.69;98274.31;5087795;28;20079;-45
2023/09/22 02:27:54;;;;;;;6.03;4.03;;;;;;;12.65;72.88;98269.25;5088368;28;20460;-52
2023/09/22 02:30:22;;;;;;;4.82;3.92;;;;;;;12.59;72.76;98265.13;5085411;28;20447;-45
2023/09/22 02:32:49;;;;;;;4.82;2.50;;;;;;;12.55;72.51;98274.81;5082178;28;20138;-46
2023/09/22 02:35:19;;;;;;;8.68;3.13;;;;;;;12.49;71.81;98269.84;5092524;28;20094;-44
2023/09/22 02:37:45;;;;;;;9.10;2.85;;;;;;;12.46;72.47;98269.97;5094732;28;20429;-48
2023/09/22 02:40:14;;;;;;;4.35;2.40;;;;;;;12.41;71.95;98277.09;5089669;28;20129;-49
2023/09/22 02:42:41;;;;;;;8.77;3.03;;;;;;;12.36;73.04;98273.84;5083311;28;20131;-44
2023/09/22 02:45:09;;;;;;;6.82;3.40;;;;;;;12.31;72.34;98277.47;5076646;28;20156;-50
2023/09/22 02:47:38;;;;;;;6.22;2.63;;;;;;;12.27;72.19;98278.50;5087665;28;20040;-49
2023/09/22 02:50:09;;;;;;;6.18;2.83;;;;;;;12.21;72.73;98276.13;5089490;28;20393;-53
2023/09/22 02:52:38;;;;;;;4.25;2.35;;;;;;;12.14;72.81;98275.50;5082406;28;20052;-45
2023/09/22 02:55:08;;;;;;;6.55;2.58;;;;;;;12.11;71.68;98275.63;5085882;28;20058;-47
2023/09/22 02:57:36;;;;;;;6.05;2.83;;;;;;;12.05;72.94;98275.81;5086155;28;20055;-43
2023/09/22 03:00:11;;;;;;;6.32;3.38;;;;;;;12.00;72.41;98273.41;5080486;28;20143;-49
2023/09/22 03:02:38;;;;;;;6.10;2.85;;;;;;;11.95;71.76;98275.31;5084688;28;20047;-49
2023/09/22 03:05:08;;;;;;;6.40;3.03;;;;;;;11.90;72.31;98272.91;5106192;27;20134;-48
2023/09/22 03:07:34;;;;;;;6.03;2.90;;;;;;;11.86;71.43;98280.84;5101997;27;20052;-53
2023/09/22 03:10:05;;;;;;;6.78;2.97;;;;;;;11.81;71.49;98279.25;5084483;28;20048;-46
2023/09/22 03:12:33;;;;;;;6.28;4.05;;;;;;;11.77;72.73;98287.19;5086982;28;20450;-44
2023/09/22 03:15:00;;;;;;;6.78;3.03;;;;;;;11.76;72.38;98275.16;5076783;28;20075;-48
2023/09/22 03:17:26;;;;;;;6.78;3.47;;;;;;;11.72;72.77;98289.94;5088292;28;20052;-46
2023/09/22 03:19:53;;;;;;;5.43;2.88;;;;;;;11.69;72.38;98287.50;5086299;28;20101;-45
2023/09/22 03:22:20;;;;;;;6.30;2.70;;;;;;;11.65;72.83;98288.50;5083217;28;20047;-46
2023/09/22 03:24:47;;;;;;;6.13;2.60;;;;;;;11.61;71.80;98286.88;5076320;28;20044;-45
2023/09/22 03:27:14;;;;;;;6.75;3.20;;;;;;;11.59;72.81;98288.72;5086786;28;20080;-50
2023/09/22 03:29:41;;;;;;;6.72;3.15;;;;;;;11.53;71.54;98293.22;5084472;28;20052;-46
2023/09/22 03:32:08;;;;;;;6.50;3.13;;;;;;;11.49;72.13;98294.22;5086399;28;20142;-42
2023/09/22 03:34:35;;;;;;;7.63;3.00;;;;;;;11.45;72.89;98284.84;5079312;28;20106;-45
2023/09/22 03:37:08;;;;;;;5.22;2.95;;;;;;;11.41;72.68;98291.88;5079172;28;20121;-40
2023/09/22 03:39:35;;;;;;;7.13;3.67;;;;;;;11.38;72.73;98296.34;5083617;28;20060;-48
2023/09/22 03:42:03;;;;;;;9.65;3.35;;;;;;;11.32;71.66;98302.59;5079432;28;20037;-46
2023/09/22 03:44:30;;;;;;;8.48;3.65;;;;;;;11.30;71.96;98301.78;5081917;28;20475;-43
2023/09/22 03:46:56;;;;;;;5.93;2.80;;;;;;;11.27;71.97;98300.13;5089298;28;20063;-45
2023/09/22 03:49:23;;;;;;;7.65;3.17;;;;;;;11.23;72.03;98314.09;5083087;28;20394;-49
2023/09/22 03:51:50;;;;;;;12.48;3.10;;;;;;;11.19;72.73;98307.31;5083851;28;20040;-47
2023/09/22 03:54:18;;;;;;;7.38;2.95;;;;;;;11.15;72.11;98310.91;5084479;28;20048;-44
2023/09/22 03:56:45;;;;;;;9.80;3.80;;;;;;;11.14;72.85;98310.06;5082536;28;20048;-48
2023/09/22 03:59:12;;;;;;;6.53;2.88;;;;;;;11.12;72.73;98305.84;5076213;28;20048;-44
2023/09/22 04:01:38;;;;;;;9.80;3.35;;;;;;;11.09;72.16;98317.16;5077779;28;20135;-45
2023/09/22 04:04:05;;;;;;;9.20;3.67;;;;;;;11.08;72.53;98314.59;5081049;28;20075;-40
2023/09/22 04:06:32;;;;;;;7.65;3.63;;;;;;;11.07;72.87;98318.09;5087196;28;20400;-42
2023/09/22 04:09:05;;;;;;;8.65;3.08;;;;;;;11.04;72.04;98322.47;5080360;28;20063;-47
2023/09/22 04:11:32;;;;;;;10.75;3.20;;;;;;;11.02;72.72;98321.66;5082672;28;20044;-45
2023/09/22 04:13:58;;;;;;;9.38;3.15;;;;;;;11.00;71.80;98323.47;5083955;28;20051;-51
2023/09/22 04:16:25;;;;;;;9.80;2.80;;;;;;;10.99;72.52;98320.94;5083541;28;20052;-46
2023/09/22 04:18:54;;;;;;;7.97;3.72;;;;;;;10.97;72.71;98328.75;5081692;28;20085;-42
2023/09/22 04:21:22;;;;;;;7.97;3.20;;;;;;;10.94;72.46;98326.25;5084401;28;20089;-47
2023/09/22 04:23:57;;;;;;;6.55;3.22;;;;;;;10.93;71.87;98337.50;5080088;28;20048;-40
2023/09/22 04:26:29;;;;;;;9.73;3.78;;;;;;;10.90;72.18;98338.47;5082864;28;20058;-47
2023/09/22 04:28:57;;;;;;;8.35;3.17;;;;;;;10.87;72.28;98338.56;5101055;28;20126;-47
2023/09/22 04:31:24;;;;;;;9.73;3.50;;;;;;;10.85;72.38;98345.53;5101805;28;20048;-48
2023/09/22 04:33:52;;;;;;;7.80;2.92;;;;;;;10.84;72.66;98348.16;5104797;27;20124;-48
2023/09/22 04:36:21;;;;;;;8.48;3.10;;;;;;;10.80;72.99;98348.25;5101186;28;20066;-41
2023/09/22 04:38:50;;;;;;;7.50;3.40;;;;;;;10.78;72.02;98347.44;5099508;27;20044;-45
2023/09/22 04:41:20;;;;;;;8.23;3.85;;;;;;;10.77;72.91;98352.66;5081500;28;20055;-42
2023/09/22 04:43:47;;;;;;;7.10;3.47;;;;;;;10.75;72.88;98354.47;5083103;28;20040;-41
2023/09/22 04:46:15;;;;;;;8.35;2.70;;;;;;;10.72;73.21;98351.97;5076031;28;20044;-44
2023/09/22 04:48:42;;;;;;;8.18;4.53;;;;;;;10.69;73.03;98350.34;5084694;28;20883;-48
2023/09/22 04:51:09;;;;;;;13.13;4.07;;;;;;;10.66;72.13;98353.88;5077530;28;20044;-52
2023/09/22 04:53:36;;;;;;;8.52;5.22;;;;;;;10.65;72.10;98364.28;5078343;28;20047;-42
2023/09/22 04:56:05;;;;;;;10.65;5.72;;;;;;;10.63;72.99;98366.03;5078887;28;20520;-46
2023/09/22 04:58:33;;;;;;;7.53;3.70;;;;;;;10.60;73.02;98360.97;5080861;28;20077;-44
2023/09/22 05:01:02;;;;;;;8.45;3.50;;;;;;;10.59;72.71;98374.78;5081868;28;20051;-45
2023/09/22 05:03:29;;;;;;;7.10;3.22;;;;;;;10.56;72.65;98369.72;5081417;28;20076;-53
2023/09/22 05:06:09;;;;;;;6.40;3.45;;;;;;;10.51;72.01;98373.28;5085164;28;20060;-48
2023/09/22 05:08:37;;;;;;;6.75;3.13;;;;;;;10.48;71.90;98368.22;5078067;28;20052;-48
2023/09/22 05:11:07;;;;;;;7.15;3.35;;;;;;;10.46;72.08;98375.16;5080392;28;20056;-48
2023/09/22 05:13:35;;;;;;;6.55;3.33;;;;;;;10.43;72.42;98380.41;5082384;28;20050;-45
2023/09/22 05:18:41;;;;;;;7.13;4.20;;;;;;;10.39;72.48;98377.06;5096326;27;20390;-43
2023/09/22 05:21:09;;;;;;;10.43;3.78;;;;;;;10.38;72.88;98377.09;5056653;28;20072;-42
2023/09/22 05:23:36;;;;;;;11.65;3.50;;;;;;;10.36;72.37;98389.22;5057356;28;20769;-47
2023/09/22 05:26:07;;;;;;;10.48;3.05;;;;;;;10.34;72.15;98385.84;5061456;28;20110;-54
2023/09/22 05:28:35;;;;;;;7.10;4.18;;;;;;;10.31;72.91;98385.94;5048317;28;20053;-46
2023/09/22 05:31:04;;;;;;;7.22;3.58;;;;;;;10.27;72.34;98396.34;5056049;28;20045;-44
2023/09/22 05:33:33;;;;;;;9.77;4.10;;;;;;;10.25;72.75;98403.34;5057126;28;20052;-44
2023/09/22 05:35:59;;;;;;;6.97;3.58;;;;;;;10.23;72.91;98399.94;5055596;28;20045;-40
2023/09/22 05:38:26;;;;;;;8.27;4.15;;;;;;;10.21;72.65;98401.72;5040754;28;20429;-48
2023/09/22 05:40:53;;;;;;;15.48;3.53;;;;;;;10.18;72.37;98399.22;5054766;28;20513;-44
2023/09/22 05:43:22;;;;;;;7.88;3.72;;;;;;;10.13;71.90;98398.47;5061515;28;20440;-44
2023/09/22 05:45:54;;;;;;;6.47;3.65;;;;;;;10.09;72.41;98402.03;5055071;28;20048;-44
2023/09/22 05:48:21;;;;;;;5.57;3.28;;;;;;;10.06;72.90;98402.16;5061728;28;20049;-47
2023/09/22 05:53:32;;;;;;;10.35;3.63;;;;;;;10.02;72.40;98412.56;5039785;28;20391;-45
2023/09/22 05:56:09;;;;;;;12.63;4.20;;;;;;;10.00;72.15;98408.34;4992236;28;20043;-45
2023/09/22 05:58:38;;;;;;;17.85;2.65;;;;;;;10.01;72.33;98407.44;4989137;28;20666;-49
2023/09/22 06:01:07;;;;;;;12.82;4.38;;;;;;;10.02;72.43;98412.56;4993522;28;20541;-46
2023/09/22 06:03:35;;;;;;;10.95;6.22;;;;;;;10.02;71.82;98414.31;4971871;28;20138;-45
2023/09/22 06:06:12;;;;;;;6.97;4.55;;;;;;;10.00;73.06;98414.34;4974613;28;20053;-48
2023/09/22 06:08:41;;;;;;;6.07;4.13;;;;;;;10.02;72.47;98417.75;4985730;28;20057;-47
2023/09/22 06:11:09;;;;;;;8.10;4.55;;;;;;;10.01;72.94;98421.22;4985227;28;20425;-49
2023/09/22 06:13:37;;;;;;;6.70;4.55;;;;;;;10.04;72.13;98425.47;4965851;28;20138;-43
2023/09/22 06:16:05;;;;;;;7.40;4.55;;;;;;;10.02;72.16;98422.91;4991838;28;20062;-45
2023/09/22 06:18:32;;;;;;;5.50;4.07;;;;;;;10.01;72.43;98420.38;4979227;28;20054;-48
2023/09/22 06:21:01;;;;;;;6.90;4.00;;;;;;;10.00;72.53;98424.69;4988529;28;20046;-52
2023/09/22 06:23:28;;;;;;;7.75;4.85;;;;;;;10.00;72.66;98432.44;4989857;28;20050;-46
2023/09/22 06:26:02;;;;;;;6.28;4.88;;;;;;;9.99;71.94;98432.47;4985435;28;20073;-46
2023/09/22 06:28:29;;;;;;;8.15;4.45;;;;;;;9.98;72.00;98436.81;4979814;28;20054;-49
2023/09/22 06:31:01;;;;;;;6.32;3.63;;;;;;;9.99;72.73;98437.66;4980971;28;20043;-39
2023/09/22 06:33:28;;;;;;;5.85;2.60;;;;;;;9.99;72.15;98443.69;4984263;28;20998;-48
2023/09/22 06:35:57;;;;;;;4.97;4.47;;;;;;;10.02;72.76;98441.03;4983324;28;20058;-47
2023/09/22 06:38:24;;;;;;;4.65;3.60;;;;;;;10.03;72.82;98442.72;4981063;28;20081;-47
2023/09/22 06:40:55;;;;;;;4.22;2.08;;;;;;;10.05;72.35;98441.81;4994777;28;20436;-52
2023/09/22 06:43:23;;;;;;;4.53;3.60;;;;;;;10.08;72.92;98446.91;4980979;28;20054;-45
2023/09/22 06:45:52;;;;;;;4.45;3.58;;;;;;;10.10;72.79;98455.50;4986999;28;20046;-46
2023/09/22 06:48:26;;;;;;;5.10;3.95;;;;;;;10.14;72.72;98457.09;5001960;28;20524;-47
2023/09/22 06:50:57;;;;;;;4.45;3.25;;;;;;;10.19;72.62;98450.06;5001780;28;20054;-42
2023/09/22 06:53:26;;;;;;;4.18;3.28;;;;;;;10.23;72.94;98467.19;4997047;28;20124;-45
2023/09/22 06:56:09;;;;;;;4.78;3.33;;;;;;;10.23;72.73;98461.19;4999854;28;20578;-49
2023/09/22 06:58:38;;;;;;;4.13;2.72;;;;;;;10.29;72.11;98467.03;4995175;28;20058;-45
2023/09/22 07:01:14;;;;;;;5.45;4.07;;;;;;;10.34;71.86;98469.50;5000776;28;20049;-51
2023/09/22 07:03:43;;;;;;;3.83;3.35;;;;;;;10.44;72.11;98470.13;4992000;28;20093;-47
2023/09/22 07:06:14;;;;;;;5.20;3.97;;;;;;;10.58;72.34;98468.91;4982732;28;20046;-45
2023/09/22 07:08:44;;;;;;;5.65;3.63;;;;;;;10.70;72.23;98476.31;4982137;28;20054;-47
2023/09/22 07:11:12;;;;;;;4.05;3.55;;;;;;;10.80;72.39;98477.75;4984009;28;20046;-44
2023/09/22 07:13:40;;;;;;;5.13;3.92;;;;;;;10.98;72.86;98477.25;4983997;28;20129;-47
2023/09/22 07:16:10;;;;;;;5.05;3.35;;;;;;;11.42;71.95;98474.22;4986893;28;20050;-45
2023/09/22 07:18:37;;;;;;;3.47;1.77;;;;;;;12.01;71.25;98477.47;4990374;28;20581;-47
2023/09/22 07:21:07;;;;;;;3.75;1.77;;;;;;;12.75;70.98;98478.41;4986413;28;20466;-47
2023/09/22 07:23:34;;;;;;;4.28;3.50;;;;;;;13.60;69.19;98486.47;4980582;28;20043;-43
2023/09/22 07:28:39;;;;;;;2.78;1.90;;;;;;;15.42;66.26;98491.63;5054604;28;20402;-51
2023/09/22 07:31:15;;;;;;;3.85;1.67;;;;;;;16.32;65.00;98490.75;5023092;28;20127;-44
2023/09/22 07:33:43;;;;;;;4.28;2.15;;;;;;;17.15;63.09;98484.66;5017126;28;20041;-44
2023/09/22 07:36:11;;;;;;;4.03;2.15;;;;;;;17.89;62.31;98489.28;5020923;28;20503;-45
2023/09/22 07:38:39;;;;;;;2.80;1.75;;;;;;;18.34;60.47;98488.47;5013497;28;20072;-47
2023/09/22 07:41:06;;;;;;;4.28;1.83;;;;;;;18.52;60.31;98496.13;5010413;28;20072;-47
2023/09/22 07:43:32;;;;;;;4.25;2.00;;;;;;;18.90;59.80;98500.81;5020687;28;20053;-44
2023/09/22 07:46:03;;;;;;;3.78;2.15;;;;;;;19.45;59.14;98498.28;5020587;28;20096;-54
2023/09/22 07:48:30;;;;;;;3.58;2.13;;;;;;;20.06;58.04;98504.03;5014719;28;20137;-50
2023/09/22 07:50:59;;;;;;;4.20;1.83;;;;;;;20.60;57.69;98502.19;5014826;28;20132;-46
2023/09/22 07:53:26;;;;;;;5.22;1.50;;;;;;;21.17;56.36;98505.22;5016401;28;20046;-45
2023/09/22 07:55:55;;;;;;;2.33;1.52;;;;;;;21.57;55.90;98502.34;5008592;28;20757;-52
2023/09/22 07:58:22;;;;;;;3.88;1.70;;;;;;;22.05;54.91;98505.03;4993567;28;20420;-43
2023/09/22 08:00:49;;;;;;;5.72;1.58;;;;;;;22.53;53.69;98506.69;4996805;28;20055;-42
2023/09/22 08:03:18;;;;;;;4.47;2.08;;;;;;;22.93;53.48;98520.41;4996188;28;20462;-54
2023/09/22 08:05:46;;;;;;;;;;;;;;;23.35;52.93;98520.63;4994973;28;20046;-43
2023/09/22 08:08:13;;;;;;;1.75;1.35;;;;;;;23.60;52.28;98523.03;4996742;28;19926;-48
2023/09/22 08:10:40;;;;;;;2.42;1.40;;;;;;;23.88;51.37;98521.59;4997944;28;20079;-45
2023/09/22 08:13:07;;;;;;;4.18;1.50;;;;;;;24.21;50.47;98531.34;4994642;28;20126;-45
2023/09/22 08:15:35;;;;;;;2.05;1.58;;;;;;;24.57;49.88;98528.31;5013275;28;20062;-52
2023/09/22 08:18:04;;;;;;;2.10;1.60;;;;;;;24.87;48.98;98522.22;4997681;28;20129;-48
2023/09/22 08:20:33;;;;;;;2.20;1.63;;;;;;;25.08;48.01;98534.56;5002698;28;20054;-53
2023/09/22 08:23:00;;;;;;;1.55;1.42;;;;;;;25.26;47.64;98532.09;4995591;28;20458;-50
2023/09/22 08:25:27;;;;;;;2.50;1.80;;;;;;;25.40;47.47;98528.19;4996164;28;20058;-46
2023/09/22 08:27:56;;;;;;;2.13;1.50;;;;;;;25.63;47.42;98527.16;4993530;28;20047;-50
2023/09/22 08:30:24;;;;;;;3.08;1.50;;;;;;;25.96;46.11;98534.81;5008128;28;20070;-42
2023/09/22 08:32:51;;;;;;;2.40;1.60;;;;;;;26.26;46.23;98546.22;5011680;28;20049;-49
2023/09/22 08:35:18;;;;;;;3.03;1.35;;;;;;;26.64;45.73;98541.84;5011238;28;20056;-47
2023/09/22 08:37:45;;;;;;;2.25;1.77;;;;;;;26.98;45.31;98542.28;5010656;28;20050;-48
2023/09/22 08:40:15;;;;;;;2.30;1.70;;;;;;;27.25;45.04;98551.25;5005112;28;20427;-51
2023/09/22 08:42:44;;;;;;;2.25;1.42;;;;;;;27.59;44.50;98545.25;4998641;28;20562;-52
2023/09/22 08:45:11;;;;;;;2.83;1.30;;;;;;;27.77;43.13;98549.78;5004226;28;20060;-52
2023/09/22 08:47:42;;;;;;;2.25;1.52;;;;;;;27.89;43.49;98551.22;5000384;28;20054;-54
2023/09/22 08:52:51;;;;;;;3.28;1.70;;;;;;;28.32;42.79;98559.41;4999453;28;20765;-49
2023/09/22 08:55:19;;;;;;;3.05;1.83;;;;;;;28.61;41.96;98560.09;4979341;28;21954;-51
2023/09/22 08:57:47;;;;;;;2.20;1.63;;;;;;;28.85;41.71;98558.56;4979413;28;20047;-47
2023/09/22 09:02:51;;;;;;;3.58;2.25;;;;;;;29.02;41.18;98561.31;5079210;27;20416;-47
2023/09/22 09:05:21;;;;;;;3.13;1.67;;;;;;;29.11;40.39;98560.38;5038411;28;20148;-50
2023/09/22 09:07:49;;;;;;;2.70;1.80;;;;;;;29.29;40.55;98564.72;5039441;28;20506;-44
2023/09/22 09:10:33;;;;;;;4.28;1.58;;;;;;;29.50;40.06;98572.28;5041749;28;20128;-51
2023/09/22 09:13:02;;;;;;;2.95;1.73;;;;;;;29.58;40.27;98574.19;5040583;28;20049;-51
2023/09/22 09:15:42;;;;;;;2.72;2.00;;;;;;;29.74;40.62;98571.53;5034864;28;20045;-53
2023/09/22 09:18:11;;;;;;;2.95;1.20;;;;;;;29.90;40.27;98575.22;5044477;28;20049;-52
2023/09/22 09:20:41;;;;;;;3.58;1.92;;;;;;;29.93;39.92;98569.56;5041797;28;20049;-51
2023/09/22 09:23:23;;;;;;;4.00;2.25;;;;;;;30.06;39.15;98568.22;5043625;28;20059;-49
2023/09/22 09:25:52;;;;;;;;;;;;;;;30.19;40.09;98573.91;5035729;28;20136;-53
2023/09/22 09:28:18;;;;;;;5.90;1.70;;;;;;;30.17;40.18;98581.25;5035617;28;19932;-49
2023/09/22 09:30:52;;;;;;;2.58;1.88;;;;;;;30.33;40.16;98576.91;5035095;28;20080;-49
2023/09/22 09:33:22;;;;;;;3.67;1.55;;;;;;;30.37;39.08;98573.75;5042102;28;20502;-53
2023/09/22 09:35:49;;;;;;;3.15;1.73;;;;;;;30.40;38.90;98580.56;5041182;28;20053;-46
2023/09/22 09:38:20;;;;;;;3.42;2.15;;;;;;;30.38;39.08;98583.41;5035562;28;20042;-51
2023/09/22 09:40:47;;;;;;;8.93;3.63;;;;;;;30.39;39.02;98587.75;5023986;28;20181;-52
2023/09/22 09:43:14;;;;;;;3.60;2.20;;;;;;;30.40;38.42;98592.06;5042472;28;20063;-55
2023/09/22 09:45:56;;;;;;;4.50;2.67;;;;;;;30.40;38.15;98591.25;5066597;28;20044;-50
2023/09/22 09:48:24;;;;;;;3.22;2.47;;;;;;;30.24;37.88;98594.75;5079973;28;20458;-51
2023/09/22 09:50:53;;;;;;;4.00;1.92;;;;;;;29.89;38.27;98594.91;5081059;28;20055;-50
2023/09/22 09:53:22;;;;;;;;;;;;;;;29.92;39.43;98594.53;5075728;28;20094;-51
2023/09/22 09:55:52;;;;;;;3.50;1.60;;;;;;;29.78;39.01;98597.88;5054134;28;20365;-49
2023/09/22 09:58:22;;;;;;;2.78;1.80;;;;;;;29.83;39.39;98595.56;5077297;28;20662;-47
2023/09/22 10:00:50;;;;;;;3.90;1.58;;;;;;;29.75;38.61;98599.88;5077403;28;20052;-51
2023/09/22 10:03:20;;;;;;;4.60;2.58;;;;;;;29.62;38.98;98596.88;5079297;28;20052;-54
2023/09/22 10:05:50;;;;;;;3.25;1.52;;;;;;;29.49;39.32;98595.44;5081023;28;20489;-46
2023/09/22 10:08:19;;;;;;;3.33;1.88;;;;;;;29.26;39.16;98595.22;5074209;28;20500;-43
2023/09/22 10:10:49;;;;;;;5.50;0.70;;;;;;;29.15;38.96;98599.03;5081648;28;20051;-46
2023/09/22 10:13:16;;;;;;;1.63;0.85;;;;;;;29.10;39.90;98601.31;5075298;28;20052;-48
2023/09/22 10:16:04;;;;;;;1.80;0.85;;;;;;;28.96;39.72;98590.28;5066277;28;20519;-53
2023/09/22 10:21:51;;;;;;;3.17;2.25;;;;;;;28.57;40.26;98610.16;5021197;28;20768;-54
2023/09/22 10:34:56;;;;;;;4.25;1.25;;;;;;;28.02;40.41;98620.00;4988365;28;20416;-51
2023/09/22 10:37:26;;;;;;;3.30;1.38;;;;;;;27.86;39.85;98620.69;4985649;28;20431;-50
2023/09/22 10:39:56;;;;;;;1.92;0.90;;;;;;;27.67;39.90;98627.84;5002068;28;20119;-55
2023/09/22 10:42:25;;;;;;;2.00;1.08;;;;;;;27.32;40.42;98624.09;5037587;28;20129;-48
2023/09/22 10:45:02;;;;;;;3.10;0.95;;;;;;;27.00;40.72;98620.00;4988913;28;20062;-52
2023/09/22 10:47:46;;;;;;;2.50;0.82;;;;;;;26.77;40.49;98620.31;5007082;28;20050;-44
2023/09/22 10:50:31;;;;;;;2.05;0.98;;;;;;;26.52;41.31;98622.63;5001906;28;20056;-48
2023/09/22 10:55:37;;;;;;;1.60;0.85;;;;;;;25.93;41.35;98619.00;5021477;27;20831;-45
2023/09/22 11:00:53;;;;;;;2.65;1.05;;;;;;;25.67;43.22;98624.00;5033505;28;20938;-50
2023/09/22 11:03:20;;;;;;;2.88;1.08;;;;;;;25.64;43.26;98629.56;5015302;28;20052;-54
2023/09/22 11:08:45;;;;;;;5.10;2.65;;;;;;;25.61;42.02;98630.69;5097054;27;20403;-50
2023/09/22 11:11:15;;;;;;;4.45;2.42;;;;;;;25.24;42.10;98631.22;5060928;28;20044;-52
2023/09/22 11:13:52;;;;;;;2.88;1.92;;;;;;;24.84;42.42;98644.25;5062701;28;20048;-48
2023/09/22 11:16:20;;;;;;;4.57;3.03;;;;;;;24.54;42.63;98652.97;5055523;28;20098;-48
2023/09/22 11:18:48;;;;;;;3.80;3.20;;;;;;;24.26;43.70;98646.34;5064139;28;20139;-54
2023/09/22 11:21:16;;;;;;;3.38;2.35;;;;;;;23.83;43.79;98650.69;5066105;28;20064;-53
2023/09/22 11:23:43;;;;;;;2.55;2.28;;;;;;;23.45;43.88;98657.22;5075366;28;20549;-50
2023/09/22 11:26:12;;;;;;;2.90;2.60;;;;;;;23.13;44.88;98652.66;5063244;28;20102;-45
2023/09/22 11:31:19;;;;;;;3.80;0.80;;;;;;;22.72;45.31;98650.41;5022570;27;20410;-48
2023/09/22 11:33:59;;;;;;;3.50;1.00;;;;;;;22.40;44.98;98654.53;5001161;28;20481;-52
2023/09/22 11:36:26;;;;;;;3.13;1.15;;;;;;;22.31;46.71;98658.69;5004807;28;20050;-53
2023/09/22 11:38:54;;;;;;;3.13;1.17;;;;;;;22.13;46.84;98654.75;5009020;28;20045;-49
2023/09/22 11:41:22;;;;;;;1.95;1.10;;;;;;;21.99;47.19;98661.91;5022003;28;20525;-47
2023/09/22 11:43:51;;;;;;;4.63;1.00;;;;;;;21.81;46.90;98662.25;5024500;28;20064;-50
2023/09/22 11:54:29;;;;;;;4.47;2.38;;;;;;;21.22;48.28;98665.50;5095660;27;20406;-45
2023/09/22 11:56:58;;;;;;;3.53;2.95;;;;;;;21.22;49.17;98674.25;5060179;28;20504;-47
2023/09/22 11:59:34;;;;;;;4.25;2.88;;;;;;;21.32;49.30;98667.38;5055831;28;20053;-52
2023/09/22 12:02:03;;;;;;;3.40;2.55;;;;;;;21.47;49.98;98674.34;5060147;28;20057;-50
2023/09/22 12:04:34;;;;;;;5.15;3.35;;;;;;;21.61;49.75;98670.72;5058463;28;20044;-57
2023/09/22 12:07:01;;;;;;;2.53;2.33;;;;;;;21.88;49.30;98677.66;5060901;28;20139;-46
2023/09/22 12:09:28;;;;;;;6.00;2.33;;;;;;;22.11;48.98;98672.47;5061384;28;20044;-52
2023/09/22 12:11:55;;;;;;;3.35;2.38;;;;;;;22.37;49.79;98677.63;5061236;28;20132;-54
2023/09/22 12:14:23;;;;;;;2.60;2.15;;;;;;;22.63;49.18;98678.34;5057834;28;20059;-54
2023/09/22 12:16:51;;;;;;;3.03;2.30;;;;;;;22.73;48.48;98675.88;5062739;28;20048;-55
2023/09/22 12:19:19;;;;;;;5.30;2.33;;;;;;;22.82;48.46;98677.81;5068737;28;20044;-56
2023/09/22 12:21:47;;;;;;;3.65;2.80;;;;;;;22.92;48.89;98677.09;5062314;28;20059;-54
2023/09/22 12:24:14;;;;;;;3.08;1.95;;;;;;;23.11;48.42;98672.06;5058548;28;20045;-50
2023/09/22 12:26:41;;;;;;;3.55;2.33;;;;;;;23.35;48.19;98679.09;5062097;28;20500;-54
2023/09/22 12:29:10;;;;;;;2.10;1.75;;;;;;;23.53;47.74;98681.25;5057598;28;20114;-46